Time;durP1;ratioP1;P1;durP2;ratioP2;P2;SDS_P1;SDS_P2;PMS_P1;PMS_P2;Temp;Humidity;BMP_temperature;BMP_pressure;BME280_temperature;BME280_humidity;BME280_pressure;Samples;Min_cycle;Max_cycle;Signal;HPM_P1;HPM_P2
2022/05/02 00:00:53;;;;;;;30.15;18.52;;;;;;;20.98;45.07;101960.16;5093178;28;20047;-84
2022/05/02 00:03:20;;;;;;;26.02;17.05;;;;;;;20.97;45.04;101961.34;5095079;28;20016;-85
2022/05/02 00:05:45;;;;;;;28.13;18.25;;;;;;;21.02;45.25;101960.28;5093558;28;20024;-84
2022/05/02 00:08:11;;;;;;;26.48;17.58;;;;;;;21.00;45.40;101962.59;5094603;28;20070;-84
2022/05/02 00:10:37;;;;;;;29.30;18.38;;;;;;;21.03;45.33;101961.88;5094649;28;20466;-85
2022/05/02 00:13:04;;;;;;;27.92;16.77;;;;;;;21.09;45.50;101959.66;5093163;28;20502;-83
2022/05/02 00:15:29;;;;;;;25.92;17.23;;;;;;;21.12;45.75;101958.94;5094697;28;20112;-84
2022/05/02 00:17:59;;;;;;;24.05;16.95;;;;;;;21.19;45.35;101954.38;5093530;28;20060;-84
2022/05/02 00:20:36;;;;;;;24.67;18.42;;;;;;;21.05;46.24;101963.13;5094616;28;20515;-84
2022/05/02 00:23:08;;;;;;;21.50;15.70;;;;;;;21.09;45.92;101962.44;5093110;28;20166;-84
2022/05/02 00:25:34;;;;;;;21.65;14.77;;;;;;;21.11;45.62;101954.56;5092950;28;20119;-84
2022/05/02 00:28:00;;;;;;;20.63;15.77;;;;;;;21.12;45.55;101945.06;5093416;28;20043;-85
2022/05/02 00:30:27;;;;;;;20.85;16.17;;;;;;;21.09;45.80;101945.78;5093172;28;20089;-84
2022/05/02 00:32:53;;;;;;;20.30;15.90;;;;;;;21.12;45.80;101945.06;5092771;28;20035;-84
2022/05/02 00:35:19;;;;;;;25.83;16.90;;;;;;;21.10;45.74;101947.38;5093816;28;20036;-85
2022/05/02 00:37:46;;;;;;;26.02;17.13;;;;;;;21.05;45.74;101954.00;5093264;28;20020;-85
2022/05/02 00:40:14;;;;;;;21.95;15.98;;;;;;;21.06;45.73;101950.06;5093846;28;20032;-85
2022/05/02 00:42:44;;;;;;;24.88;16.98;;;;;;;20.96;45.99;101937.50;5093068;28;20039;-84
2022/05/02 00:45:11;;;;;;;22.95;17.63;;;;;;;20.94;46.05;101934.25;5092839;28;20169;-83
2022/05/02 00:47:37;;;;;;;25.23;18.02;;;;;;;20.90;46.06;101941.69;5092726;28;20031;-83
2022/05/02 00:50:04;;;;;;;26.40;17.27;;;;;;;20.88;45.97;101946.78;5092653;28;20028;-84
2022/05/02 00:52:30;;;;;;;27.08;18.65;;;;;;;20.89;45.83;101944.81;5092620;28;20548;-84
2022/05/02 00:54:56;;;;;;;28.55;19.88;;;;;;;20.87;46.29;101942.41;5092639;28;20024;-85
2022/05/02 00:57:22;;;;;;;26.90;17.45;;;;;;;20.85;46.26;101936.38;5052324;28;20099;-85
2022/05/02 00:59:48;;;;;;;24.05;17.17;;;;;;;20.91;46.09;101945.25;5052366;28;20117;-84
2022/05/02 01:02:15;;;;;;;28.65;17.50;;;;;;;20.89;46.21;101951.19;5090332;28;20101;-85
2022/05/02 01:04:42;;;;;;;30.65;18.73;;;;;;;20.88;46.26;101944.00;5092209;28;20127;-84
2022/05/02 01:07:19;;;;;;;26.27;17.95;;;;;;;20.92;46.30;101947.69;5092435;28;20121;-84
2022/05/02 01:09:50;;;;;;;28.48;17.33;;;;;;;20.98;46.12;101951.03;5091712;28;20474;-85
2022/05/02 01:12:21;;;;;;;27.38;17.58;;;;;;;20.96;46.14;101948.59;5092254;28;20032;-85
2022/05/02 01:14:49;;;;;;;37.60;19.63;;;;;;;21.03;46.16;101945.22;5081476;28;20032;-85
2022/05/02 01:17:15;;;;;;;33.53;20.00;;;;;;;21.17;45.72;101944.81;5090530;28;20031;-85
2022/05/02 01:19:41;;;;;;;28.20;17.65;;;;;;;21.12;46.07;101945.06;5093214;28;20378;-85
2022/05/02 01:22:08;;;;;;;35.08;18.63;;;;;;;21.29;45.52;101950.31;5091979;28;20500;-84
2022/05/02 01:24:45;;;;;;;28.77;18.10;;;;;;;21.21;45.85;101945.69;5092108;28;20110;-85
2022/05/02 01:27:12;;;;;;;24.38;16.90;;;;;;;21.22;45.80;101944.53;5093285;28;20036;-84
2022/05/02 01:29:41;;;;;;;27.13;18.00;;;;;;;21.19;45.84;101948.03;5091933;28;20027;-85
2022/05/02 01:32:08;;;;;;;24.40;16.13;;;;;;;21.15;45.88;101939.56;5091966;28;20113;-85
2022/05/02 01:34:35;;;;;;;28.33;19.05;;;;;;;20.95;46.75;101946.19;5091840;28;20035;-85
2022/05/02 01:37:03;;;;;;;34.78;20.75;;;;;;;20.86;46.75;101953.88;5093046;28;20048;-83
2022/05/02 01:39:29;;;;;;;29.33;20.02;;;;;;;20.86;46.63;101959.44;5092029;28;20024;-85
2022/05/02 01:41:58;;;;;;;22.52;17.30;;;;;;;20.83;46.88;101949.81;5091771;28;20035;-84
2022/05/02 01:44:24;;;;;;;21.27;16.08;;;;;;;20.86;46.91;101956.66;5091807;28;20024;-85
2022/05/02 01:46:51;;;;;;;25.35;17.58;;;;;;;20.79;47.19;101960.03;5091814;28;20506;-84
2022/05/02 01:49:16;;;;;;;22.17;16.77;;;;;;;20.78;47.37;101959.22;5091786;28;20642;-84
2022/05/02 01:51:42;;;;;;;30.17;17.38;;;;;;;20.68;47.17;101962.47;5091648;28;20046;-84
2022/05/02 01:54:07;;;;;;;25.20;17.50;;;;;;;20.67;47.19;101966.41;5091664;28;20491;-85
2022/05/02 01:56:33;;;;;;;47.95;17.92;;;;;;;20.73;46.96;101964.22;5091726;28;20492;-85
2022/05/02 01:58:59;;;;;;;35.55;17.77;;;;;;;20.71;46.90;101966.53;5091695;28;20032;-83
2022/05/02 02:01:24;;;;;;;21.65;15.20;;;;;;;20.68;47.41;101967.22;5091193;28;20047;-85
2022/05/02 02:03:50;;;;;;;26.42;16.25;;;;;;;20.76;46.97;101969.06;5092944;28;20485;-84
2022/05/02 02:06:16;;;;;;;22.60;15.52;;;;;;;20.74;47.30;101976.94;5091683;28;20028;-84
2022/05/02 02:08:41;;;;;;;34.92;16.45;;;;;;;20.75;46.69;101970.22;5091637;28;20046;-84
2022/05/02 02:11:09;;;;;;;24.80;15.52;;;;;;;20.74;46.72;101963.03;5091355;28;20512;-85
2022/05/02 02:13:36;;;;;;;23.98;15.25;;;;;;;20.76;46.86;101971.81;5091140;28;20119;-83
2022/05/02 02:16:06;;;;;;;20.67;14.90;;;;;;;20.62;47.01;101963.88;5092671;28;20028;-85
2022/05/02 02:18:32;;;;;;;15.88;13.45;;;;;;;20.69;47.46;101966.06;5091667;28;20101;-84
2022/05/02 02:20:57;;;;;;;15.77;13.27;;;;;;;20.77;47.03;101965.09;5092557;28;20480;-84
2022/05/02 02:23:24;;;;;;;17.23;13.98;;;;;;;20.77;46.86;101967.88;5095400;28;20036;-84
2022/05/02 02:25:50;;;;;;;19.13;15.38;;;;;;;20.76;46.92;101963.50;5096470;28;20066;-83
2022/05/02 02:28:16;;;;;;;19.17;15.20;;;;;;;20.76;47.05;101967.06;5095299;28;20031;-85
2022/05/02 02:30:43;;;;;;;19.63;15.23;;;;;;;20.80;46.79;101961.66;5095237;28;20035;-84
2022/05/02 02:33:08;;;;;;;18.42;13.70;;;;;;;20.80;46.79;101961.66;5096380;28;20032;-85
2022/05/02 02:35:34;;;;;;;18.98;15.82;;;;;;;20.82;46.72;101958.50;5063059;28;20087;-85
2022/05/02 02:38:00;;;;;;;19.90;15.18;;;;;;;20.78;46.63;101964.78;5087113;28;20043;-83
2022/05/02 02:40:25;;;;;;;19.55;14.63;;;;;;;20.74;47.00;101965.81;5096264;28;20031;-84
2022/05/02 02:42:51;;;;;;;19.95;14.88;;;;;;;20.77;46.83;101959.56;5096515;28;20111;-85
2022/05/02 02:45:17;;;;;;;18.67;14.38;;;;;;;20.77;46.83;101960.34;5094862;28;20028;-84
2022/05/02 02:47:43;;;;;;;18.77;14.48;;;;;;;20.80;46.72;101967.19;5094850;28;20123;-84
2022/05/02 02:50:09;;;;;;;19.30;14.45;;;;;;;20.75;46.97;101962.69;5095003;28;20036;-85
2022/05/02 02:52:36;;;;;;;28.05;15.95;;;;;;;20.70;47.07;101968.47;5096215;28;20028;-84
2022/05/02 02:55:01;;;;;;;23.83;16.00;;;;;;;20.72;47.23;101962.59;5096138;28;20458;-84
2022/05/02 02:57:27;;;;;;;18.45;14.25;;;;;;;20.73;47.18;101962.25;5094806;28;20035;-85
2022/05/02 02:59:53;;;;;;;17.88;13.75;;;;;;;20.73;47.26;101967.78;5094708;28;20024;-84
2022/05/02 03:02:19;;;;;;;20.58;14.23;;;;;;;20.76;46.97;101967.06;5094551;28;20107;-85
2022/05/02 03:07:30;;;;;;;19.15;13.32;;;;;;;20.80;46.84;101958.88;5096254;28;20031;-84
2022/05/02 03:09:57;;;;;;;19.33;13.70;;;;;;;20.77;47.00;101970.66;5094381;28;20462;-84
2022/05/02 03:12:23;;;;;;;17.65;13.18;;;;;;;20.83;46.88;101960.13;5094247;28;20123;-84
2022/05/02 03:14:49;;;;;;;20.10;14.10;;;;;;;20.90;46.67;101975.03;5094661;28;20150;-84
2022/05/02 03:17:15;;;;;;;23.83;14.57;;;;;;;20.85;47.02;101971.69;5095761;28;20107;-84
2022/05/02 03:19:41;;;;;;;23.27;15.30;;;;;;;20.94;46.69;101978.72;5094542;28;20028;-84
2022/05/02 03:22:06;;;;;;;17.63;14.13;;;;;;;20.96;46.49;101979.16;5095604;28;20031;-83
2022/05/02 03:24:32;;;;;;;16.70;13.32;;;;;;;20.86;46.69;101971.34;5094488;28;20120;-84
2022/05/02 03:26:58;;;;;;;16.73;12.90;;;;;;;20.80;46.79;101974.72;5095371;28;20099;-83
2022/05/02 03:29:24;;;;;;;17.90;13.55;;;;;;;20.76;47.04;101974.59;5093746;28;20486;-84
2022/05/02 03:31:50;;;;;;;18.23;13.77;;;;;;;20.72;46.93;101977.28;5093673;28;20039;-83
2022/05/02 03:34:15;;;;;;;16.85;13.80;;;;;;;20.64;47.24;101974.66;5093767;28;20061;-83
2022/05/02 03:36:41;;;;;;;15.15;11.55;;;;;;;20.65;46.91;101979.84;5095012;28;20111;-83
2022/05/02 03:39:07;;;;;;;14.60;12.32;;;;;;;20.69;46.88;101972.44;5093872;28;20036;-83
2022/05/02 03:41:33;;;;;;;14.23;12.10;;;;;;;20.70;47.04;101976.81;5093797;28;20090;-84
2022/05/02 03:43:59;;;;;;;14.95;12.15;;;;;;;20.73;47.09;101980.88;5093737;28;20036;-82
2022/05/02 03:46:25;;;;;;;14.95;13.07;;;;;;;20.52;47.65;101980.25;5093534;28;20028;-83
2022/05/02 03:48:51;;;;;;;13.95;10.82;;;;;;;20.41;47.99;101977.13;5093491;28;20060;-83
2022/05/02 03:51:17;;;;;;;12.10;10.80;;;;;;;20.34;48.03;101976.91;5093445;28;20060;-83
2022/05/02 03:53:43;;;;;;;12.75;11.35;;;;;;;20.34;48.12;101976.91;5095010;28;20028;-83
2022/05/02 03:56:09;;;;;;;14.77;11.75;;;;;;;20.37;48.10;101978.97;5094783;28;20031;-84
2022/05/02 03:58:35;;;;;;;13.93;11.07;;;;;;;20.42;47.86;101987.88;5093453;28;20070;-82
2022/05/02 04:01:01;;;;;;;14.15;12.25;;;;;;;20.42;47.82;101993.41;5092926;28;20051;-84
2022/05/02 04:03:27;;;;;;;13.82;11.98;;;;;;;20.42;47.74;101975.97;5094142;28;20028;-82
2022/05/02 04:05:53;;;;;;;12.95;11.63;;;;;;;20.46;47.71;101980.47;5093263;28;20034;-84
2022/05/02 04:08:18;;;;;;;15.15;12.20;;;;;;;20.48;47.71;101975.41;5094139;28;20077;-84
2022/05/02 04:10:45;;;;;;;13.73;11.43;;;;;;;20.56;47.37;101976.41;5093595;28;20020;-82
2022/05/02 04:13:10;;;;;;;13.77;11.10;;;;;;;20.56;47.55;101968.09;5094057;28;20032;-83
2022/05/02 04:15:37;;;;;;;14.27;12.77;;;;;;;20.55;47.40;101971.19;5093093;28;20030;-84
2022/05/02 04:18:02;;;;;;;13.35;11.90;;;;;;;20.49;47.76;101967.88;5092898;28;20032;-82
2022/05/02 04:20:28;;;;;;;13.02;11.20;;;;;;;20.53;47.61;101977.09;5092786;28;20043;-84
2022/05/02 04:22:54;;;;;;;16.40;13.23;;;;;;;20.48;47.81;101969.03;5092767;28;20398;-84
2022/05/02 04:25:19;;;;;;;13.20;11.82;;;;;;;20.45;47.89;101976.09;5092979;28;20035;-84
2022/05/02 04:27:45;;;;;;;15.40;13.80;;;;;;;20.39;47.71;101973.88;5092684;28;20165;-84
2022/05/02 04:30:11;;;;;;;16.02;13.45;;;;;;;20.26;48.14;101972.28;5092833;28;20530;-82
2022/05/02 04:32:38;;;;;;;16.33;14.57;;;;;;;20.30;48.25;101979.56;5092727;28;20040;-85
2022/05/02 04:35:05;;;;;;;15.73;13.65;;;;;;;20.22;48.44;101983.25;5092489;28;20040;-85
2022/05/02 04:37:30;;;;;;;15.07;12.60;;;;;;;20.23;48.52;101976.56;5092082;28;20043;-83
2022/05/02 04:39:56;;;;;;;15.52;13.70;;;;;;;20.24;48.64;101976.19;5094112;28;20390;-84
2022/05/02 04:42:22;;;;;;;14.75;13.27;;;;;;;20.27;48.67;101982.22;5092744;28;20455;-83
2022/05/02 04:44:49;;;;;;;16.95;12.50;;;;;;;20.26;48.52;101989.75;5091932;28;20024;-85
2022/05/02 04:47:15;;;;;;;15.63;13.98;;;;;;;20.20;48.72;101991.13;5092802;28;20115;-85
2022/05/02 04:49:40;;;;;;;17.52;14.60;;;;;;;20.22;48.68;101980.50;5093826;28;20055;-84
2022/05/02 04:52:06;;;;;;;18.05;15.68;;;;;;;20.32;48.32;101985.56;5092452;28;20085;-83
2022/05/02 04:54:32;;;;;;;17.65;15.45;;;;;;;20.30;48.46;101987.88;5094213;28;20104;-83
2022/05/02 04:56:57;;;;;;;18.60;15.98;;;;;;;20.44;47.83;101984.75;5092470;28;20031;-85
2022/05/02 04:59:23;;;;;;;18.95;16.55;;;;;;;20.31;48.39;101980.34;5092590;28;20032;-84
2022/05/02 05:01:48;;;;;;;18.30;15.48;;;;;;;20.31;48.28;101983.13;5093410;28;20028;-85
2022/05/02 05:04:14;;;;;;;21.23;15.93;;;;;;;20.29;48.41;101989.03;5092229;28;20078;-83
2022/05/02 05:06:40;;;;;;;21.08;15.23;;;;;;;20.32;48.25;101985.56;5092427;28;20028;-82
2022/05/02 05:09:05;;;;;;;18.27;15.13;;;;;;;20.32;48.29;101987.53;5092795;28;20040;-83
2022/05/02 05:11:46;;;;;;;18.05;14.88;;;;;;;20.31;48.25;101989.50;5091789;28;20067;-82
2022/05/02 05:17:42;;;;;;;17.80;15.88;;;;;;;20.38;47.88;101983.34;5074863;28;20121;-83
2022/05/02 05:20:33;;;;;;;18.17;15.43;;;;;;;20.59;47.37;101988.78;5091945;28;20058;-83
2022/05/02 05:23:09;;;;;;;23.40;15.95;;;;;;;20.38;47.88;101986.13;5081810;28;20040;-82
2022/05/02 05:26:01;;;;;;;18.05;15.25;;;;;;;20.47;47.67;101990.41;5093138;28;20031;-82
2022/05/02 05:28:41;;;;;;;19.42;15.98;;;;;;;20.39;48.03;101990.53;5092976;28;20473;-82
2022/05/02 05:31:44;;;;;;;20.27;15.93;;;;;;;20.41;47.94;101991.81;5091616;28;20089;-84
2022/05/02 05:34:33;;;;;;;18.42;15.98;;;;;;;20.34;48.23;101993.56;5089769;28;20032;-84
2022/05/02 05:37:08;;;;;;;19.73;15.57;;;;;;;20.33;48.24;102003.00;5091663;28;20483;-84
2022/05/02 05:40:02;;;;;;;18.00;15.68;;;;;;;20.35;48.11;102007.06;5093137;28;20031;-84
2022/05/02 05:42:34;;;;;;;19.25;15.68;;;;;;;20.33;48.25;101997.47;5091709;28;20393;-85
2022/05/02 05:45:04;;;;;;;22.85;16.25;;;;;;;20.33;48.41;102000.22;5093141;28;20048;-83
2022/05/02 05:47:51;;;;;;;19.20;15.95;;;;;;;20.43;48.19;102005.34;5091680;28;20032;-84
2022/05/02 05:50:24;;;;;;;18.52;15.07;;;;;;;20.48;47.95;102014.28;5091688;28;20043;-85
2022/05/02 05:52:58;;;;;;;21.98;16.48;;;;;;;20.50;47.96;102020.28;5091566;28;20502;-83
2022/05/02 05:55:30;;;;;;;22.40;15.40;;;;;;;20.58;47.77;102018.53;5094714;28;20031;-85
2022/05/02 05:58:26;;;;;;;20.80;16.85;;;;;;;20.70;47.54;102026.81;5098213;28;20119;-82
2022/05/02 06:01:03;;;;;;;22.23;17.27;;;;;;;20.67;47.64;102024.75;5099387;28;20036;-82
2022/05/02 06:03:34;;;;;;;24.27;17.15;;;;;;;20.75;47.26;102025.75;5098059;28;20035;-84
2022/05/02 06:06:01;;;;;;;21.33;16.95;;;;;;;20.73;47.62;102023.34;5098185;28;20108;-85
2022/05/02 06:08:29;;;;;;;23.65;17.63;;;;;;;20.85;47.31;102030.81;5097945;28;20027;-85
2022/05/02 06:10:58;;;;;;;20.95;16.88;;;;;;;20.76;47.45;102033.75;5098152;28;20024;-84
2022/05/02 06:13:29;;;;;;;24.10;17.52;;;;;;;20.82;47.31;102036.28;5098172;28;20371;-84
2022/05/02 06:18:42;;;;;;;19.27;15.77;;;;;;;20.76;47.66;102046.81;5099774;28;20577;-83
2022/05/02 06:21:08;;;;;;;18.52;16.20;;;;;;;20.73;47.56;102045.56;5097933;28;20032;-85
2022/05/02 06:23:41;;;;;;;20.13;16.80;;;;;;;20.70;47.54;102051.00;5098232;28;20039;-85
2022/05/02 06:26:07;;;;;;;23.38;18.55;;;;;;;20.63;47.79;102046.06;5098061;28;20028;-84
2022/05/02 06:28:46;;;;;;;25.38;19.20;;;;;;;20.85;47.04;102046.69;5097986;28;20036;-84
2022/05/02 06:31:19;;;;;;;21.00;17.05;;;;;;;20.89;46.95;102053.16;5098207;28;20382;-84
2022/05/02 06:33:48;;;;;;;20.48;14.20;;;;;;;20.85;47.16;102053.03;5098058;28;20035;-83
2022/05/02 06:36:42;;;;;;;17.15;15.15;;;;;;;20.86;46.95;102053.88;5097572;28;20135;-83
2022/05/02 06:39:15;;;;;;;13.43;11.50;;;;;;;20.86;46.79;102053.88;5098020;28;20032;-84
2022/05/02 06:41:55;;;;;;;13.23;11.50;;;;;;;20.73;47.18;102050.31;5097959;28;20055;-82
2022/05/02 06:44:33;;;;;;;13.18;11.13;;;;;;;20.64;47.07;102046.88;5097927;28;20383;-82
2022/05/02 06:47:46;;;;;;;15.63;12.48;;;;;;;20.91;46.72;102048.06;5097952;28;20049;-83
2022/05/02 06:50:16;;;;;;;14.40;11.63;;;;;;;20.85;47.03;102050.25;5036552;28;20388;-85
2022/05/02 06:53:13;;;;;;;11.45;10.35;;;;;;;20.99;46.52;102056.25;5036531;28;20037;-85
2022/05/02 06:55:41;;;;;;;12.35;10.98;;;;;;;20.92;46.92;102058.81;5069585;28;20042;-85
2022/05/02 06:58:25;;;;;;;12.43;10.90;;;;;;;20.85;47.02;102058.59;5097912;28;20081;-85
2022/05/02 07:01:01;;;;;;;15.43;12.88;;;;;;;20.91;46.92;102057.19;5097812;28;20032;-82
2022/05/02 07:04:05;;;;;;;13.20;11.60;;;;;;;20.94;46.78;102069.59;5058861;28;20495;-85
2022/05/02 07:07:30;;;;;;;13.07;11.57;;;;;;;21.03;46.70;102065.50;5081512;28;20105;-84
2022/05/02 07:10:01;;;;;;;15.30;12.15;;;;;;;21.05;46.66;102068.72;5005920;28;20045;-83
2022/05/02 07:12:29;;;;;;;13.30;11.70;;;;;;;21.03;46.88;102068.28;5016411;28;20025;-84
2022/05/02 07:14:58;;;;;;;13.15;11.60;;;;;;;21.13;46.76;102069.75;5055159;28;20032;-83
2022/05/02 07:17:42;;;;;;;16.23;11.82;;;;;;;21.08;46.66;102072.78;5094570;28;20077;-84
2022/05/02 07:20:15;;;;;;;12.00;10.60;;;;;;;21.18;46.52;102075.06;5094461;28;20028;-82
2022/05/02 07:22:51;;;;;;;14.82;12.68;;;;;;;21.30;45.93;102079.78;5094477;28;20046;-84
2022/05/02 07:25:20;;;;;;;14.23;11.82;;;;;;;21.30;46.15;102086.16;5079610;28;20035;-83
2022/05/02 07:28:07;;;;;;;14.98;12.73;;;;;;;21.50;45.79;102084.34;5074132;28;20025;-83
2022/05/02 07:30:32;;;;;;;12.60;10.57;;;;;;;21.55;45.52;102078.53;5076193;28;20094;-85
2022/05/02 07:33:01;;;;;;;11.70;10.32;;;;;;;21.46;45.79;102085.38;5077265;28;20605;-84
2022/05/02 07:35:29;;;;;;;16.00;12.52;;;;;;;21.46;45.86;102088.16;5072534;28;20486;-85
2022/05/02 07:37:57;;;;;;;19.40;12.25;;;;;;;21.49;45.75;102084.69;5070878;28;20127;-84
2022/05/02 07:40:24;;;;;;;14.48;11.45;;;;;;;21.47;45.80;102085.06;5074461;28;20111;-84
2022/05/02 07:42:53;;;;;;;14.85;12.25;;;;;;;21.47;45.91;102090.63;5073093;28;20043;-84
2022/05/02 07:45:24;;;;;;;11.35;10.15;;;;;;;21.52;45.70;102084.78;5086842;28;20382;-83
2022/05/02 07:47:53;;;;;;;11.68;10.48;;;;;;;21.54;45.66;102090.81;5073543;28;20039;-85
2022/05/02 07:50:21;;;;;;;17.88;12.27;;;;;;;21.55;45.56;102092.44;5077424;28;20024;-85
2022/05/02 07:52:50;;;;;;;16.92;14.15;;;;;;;21.62;45.79;102091.03;5093387;28;20515;-83
2022/05/02 07:55:20;;;;;;;12.20;10.68;;;;;;;21.60;45.78;102094.94;5082102;28;20385;-84
2022/05/02 07:57:48;;;;;;;15.38;11.50;;;;;;;21.63;45.74;102093.44;5073307;28;20106;-85
2022/05/02 08:00:14;;;;;;;17.38;13.00;;;;;;;21.64;45.78;102094.25;5072979;28;20482;-84
2022/05/02 08:02:41;;;;;;;13.07;11.65;;;;;;;21.55;45.81;102102.75;5074124;28;20070;-85
2022/05/02 08:05:07;;;;;;;16.85;12.88;;;;;;;21.60;45.80;102099.69;5093058;28;20420;-86
2022/05/02 08:07:33;;;;;;;14.18;11.75;;;;;;;21.72;45.21;102099.63;5076091;28;20029;-84
2022/05/02 08:10:33;;;;;;;13.00;11.13;;;;;;;21.44;45.62;102108.00;5073590;28;20025;-88
2022/05/02 08:13:23;;;;;;;13.63;10.77;;;;;;;21.65;45.62;102107.78;5065124;28;20033;-87
2022/05/02 08:15:58;;;;;;;14.88;12.05;;;;;;;21.47;46.06;102112.88;5072610;28;20190;-86
2022/05/02 08:18:45;;;;;;;16.80;11.80;;;;;;;21.41;45.88;102107.91;5067653;28;20077;-87
2022/05/02 08:21:17;;;;;;;15.15;12.43;;;;;;;21.52;45.84;102106.22;5068220;28;20055;-86
2022/05/02 08:27:19;;;;;;;14.85;11.45;;;;;;;21.30;46.33;102113.94;5087806;28;20054;-83
2022/05/02 08:29:48;;;;;;;19.33;11.98;;;;;;;21.32;46.25;102122.78;5066352;28;20033;-84
2022/05/02 08:32:34;;;;;;;15.93;12.02;;;;;;;21.38;46.15;102119.72;5062585;28;20551;-82
2022/05/02 08:35:08;;;;;;;17.55;11.20;;;;;;;21.38;46.25;102114.97;5062905;28;20028;-80
2022/05/02 08:37:39;;;;;;;11.75;9.93;;;;;;;21.44;45.99;102124.69;5077090;28;20118;-84
2022/05/02 08:40:04;;;;;;;21.83;12.55;;;;;;;21.44;46.11;102123.88;5092028;28;20024;-78
2022/05/02 08:42:36;;;;;;;13.98;11.82;;;;;;;21.41;46.09;102127.38;5090680;28;20040;-79
2022/05/02 08:45:04;;;;;;;20.75;13.05;;;;;;;21.56;45.71;102126.63;5091028;28;20684;-91
2022/05/02 08:47:51;;;;;;;16.50;12.30;;;;;;;21.64;45.84;102124.84;5077445;28;20075;-83
2022/05/02 08:50:31;;;;;;;14.80;12.75;;;;;;;21.57;45.74;102117.91;5058679;28;20032;-79
2022/05/02 08:53:33;;;;;;;16.27;13.45;;;;;;;21.73;45.44;102122.69;5066932;28;20097;-86
2022/05/02 08:56:18;;;;;;;20.65;14.48;;;;;;;21.63;45.67;102126.00;5085073;28;20040;-86
2022/05/02 08:58:55;;;;;;;16.15;13.80;;;;;;;21.92;45.33;102114.50;5090496;28;20398;-85
2022/05/02 09:01:42;;;;;;;14.35;12.85;;;;;;;22.03;45.41;102120.31;5092938;28;20630;-86
2022/05/02 09:04:45;;;;;;;15.23;12.25;;;;;;;22.01;45.40;102126.25;5091002;28;20062;-85
2022/05/02 09:07:29;;;;;;;13.18;11.77;;;;;;;22.09;45.50;102113.34;5091862;28;20511;-92
2022/05/02 09:10:15;;;;;;;13.23;10.68;;;;;;;22.00;45.42;102113.50;5091266;28;20044;-79
2022/05/02 09:12:51;;;;;;;16.77;12.95;;;;;;;22.21;45.14;102112.44;5081497;28;20645;-79
2022/05/02 09:15:35;;;;;;;19.45;13.07;;;;;;;22.24;45.01;102117.31;5091340;28;20032;-82
2022/05/02 09:18:29;;;;;;;16.98;12.48;;;;;;;22.30;44.99;102116.69;5082992;28;20081;-86
2022/05/02 09:21:21;;;;;;;30.88;13.93;;;;;;;22.37;45.02;102122.44;5052441;28;20044;-78
2022/05/02 09:24:08;;;;;;;16.70;12.35;;;;;;;22.50;44.82;102125.91;5052500;28;20060;-78
2022/05/02 09:27:03;;;;;;;23.88;13.57;;;;;;;22.36;44.97;102125.56;5047963;28;20051;-77
2022/05/02 09:29:53;;;;;;;16.88;11.25;;;;;;;22.54;44.52;102120.44;5050726;28;20021;-77
2022/05/02 09:32:18;;;;;;;;;;;;;;;22.46;44.78;102118.66;5050927;28;20438;-78
2022/05/02 09:34:56;;;;;;;15.05;13.05;;;;;;;22.53;44.71;102119.63;5050630;28;19913;-73
2022/05/02 09:37:31;;;;;;;18.88;12.02;;;;;;;22.69;44.56;102125.19;5083670;28;20496;-74
2022/05/02 09:40:17;;;;;;;28.95;18.77;;;;;;;22.61;45.15;102124.19;5071314;28;20075;-73
2022/05/02 09:42:45;;;;;;;24.80;13.82;;;;;;;22.63;44.83;102130.22;5072347;28;20032;-74
2022/05/02 09:51:49;;;;;;;27.15;11.07;;;;;;;22.84;44.46;102140.25;5070196;28;20098;-74
2022/05/02 09:58:00;;;;;;;15.57;7.38;;;;;;;22.98;43.87;102126.66;5071182;28;20541;-75
2022/05/02 10:01:13;;;;;;;9.20;8.05;;;;;;;23.17;43.64;102123.88;5061125;28;20165;-73
2022/05/02 10:03:53;;;;;;;16.80;8.23;;;;;;;23.32;43.42;102126.97;5065312;28;20102;-77
2022/05/02 10:06:35;;;;;;;7.82;6.07;;;;;;;23.35;42.88;102134.59;5061439;28;20029;-74
2022/05/02 10:09:04;;;;;;;9.38;6.32;;;;;;;23.33;43.21;102140.53;5087833;28;20031;-73
2022/05/02 10:11:49;;;;;;;23.08;9.07;;;;;;;23.22;43.44;102131.97;5071925;28;20082;-74
2022/05/02 10:14:56;;;;;;;9.43;5.53;;;;;;;23.27;42.71;102144.78;5072060;28;20115;-74
2022/05/02 10:17:48;;;;;;;10.70;6.13;;;;;;;23.18;43.18;102138.63;5010061;28;20472;-78
2022/05/02 10:20:18;;;;;;;12.65;7.63;;;;;;;23.02;43.20;102149.84;5071826;28;20032;-79
2022/05/02 10:23:02;;;;;;;15.93;8.55;;;;;;;22.91;43.19;102154.38;5072065;28;20474;-76
2022/05/02 10:25:50;;;;;;;13.63;7.70;;;;;;;22.68;43.87;102146.66;5080553;28;20028;-75
2022/05/02 10:28:34;;;;;;;15.45;8.23;;;;;;;22.54;44.17;102151.88;5074610;28;20024;-75
2022/05/02 10:31:35;;;;;;;12.70;7.57;;;;;;;22.40;44.28;102148.75;5088255;28;20028;-78
2022/05/02 10:34:03;;;;;;;7.95;6.50;;;;;;;22.38;44.00;102146.31;5039315;28;20040;-74
2022/05/02 10:36:36;;;;;;;6.93;6.15;;;;;;;22.37;44.01;102157.81;5071663;28;20051;-75
2022/05/02 10:39:28;;;;;;;8.23;6.75;;;;;;;22.30;44.26;102154.88;5071689;28;20074;-79
2022/05/02 10:41:58;;;;;;;9.60;6.93;;;;;;;22.23;44.11;102151.91;5071953;28;20422;-75
2022/05/02 10:44:28;;;;;;;16.20;8.85;;;;;;;22.07;44.62;102157.41;5075527;28;20036;-76
2022/05/02 10:47:03;;;;;;;10.20;6.85;;;;;;;22.22;44.14;102150.25;5074450;28;20102;-75
2022/05/02 10:50:02;;;;;;;10.35;7.88;;;;;;;22.01;44.56;102153.28;5070951;28;20052;-79
2022/05/02 10:52:46;;;;;;;24.07;10.40;;;;;;;21.97;45.14;102157.91;5072376;28;20120;-77
2022/05/02 10:55:32;;;;;;;15.98;9.65;;;;;;;22.12;44.58;102154.38;5073990;28;20272;-74
2022/05/02 10:58:08;;;;;;;16.20;8.55;;;;;;;22.14;44.62;102157.59;5069044;28;20025;-78
2022/05/02 11:00:53;;;;;;;8.23;7.43;;;;;;;22.00;45.16;102157.22;5068587;28;20120;-76
2022/05/02 11:03:44;;;;;;;16.85;11.07;;;;;;;22.17;44.73;102153.31;5065085;28;20025;-76
2022/05/02 11:06:30;;;;;;;15.02;8.95;;;;;;;22.08;45.32;102170.19;5072303;28;20090;-78
2022/05/02 11:09:01;;;;;;;8.73;7.50;;;;;;;22.24;44.52;102162.66;5070707;28;20036;-76
2022/05/02 11:11:47;;;;;;;13.35;9.25;;;;;;;22.33;44.35;102168.84;5075468;28;20107;-76
2022/05/02 11:14:29;;;;;;;14.25;8.10;;;;;;;22.36;44.39;102164.53;5073977;28;20024;-76
2022/05/02 11:17:18;;;;;;;15.32;9.60;;;;;;;22.33;44.63;102163.28;5075749;28;20379;-75
2022/05/02 11:22:54;;;;;;;16.02;9.80;;;;;;;22.32;44.99;102158.09;5092952;28;20600;-76
2022/05/02 11:25:21;;;;;;;11.70;9.48;;;;;;;22.47;44.70;102164.81;5075201;28;20076;-75
2022/05/02 11:27:52;;;;;;;13.93;9.23;;;;;;;22.54;44.52;102163.03;5094277;28;20024;-76
2022/05/02 11:30:22;;;;;;;18.77;10.55;;;;;;;22.51;44.61;102163.72;5093611;28;20501;-75
2022/05/02 11:33:25;;;;;;;25.85;12.73;;;;;;;22.50;45.02;102161.31;5090818;28;20028;-77
2022/05/02 11:36:00;;;;;;;15.07;12.07;;;;;;;22.55;44.84;102152.69;5060924;28;20144;-75
2022/05/02 11:38:36;;;;;;;15.93;12.20;;;;;;;22.64;44.28;102151.31;5070638;28;20020;-78
2022/05/02 11:41:15;;;;;;;17.70;10.98;;;;;;;22.88;44.21;102146.72;5070370;28;20090;-78
2022/05/02 11:43:43;;;;;;;11.27;10.05;;;;;;;23.05;44.00;102151.06;5060975;28;20573;-75
2022/05/02 11:46:26;;;;;;;9.23;7.95;;;;;;;23.09;44.23;102144.41;5069722;28;20063;-75
2022/05/02 11:49:16;;;;;;;13.55;11.43;;;;;;;23.15;44.10;102150.53;5054963;28;20063;-75
2022/05/02 11:51:47;;;;;;;15.30;10.65;;;;;;;23.26;43.95;102141.19;5055140;28;20028;-75
2022/05/02 11:54:22;;;;;;;17.77;11.13;;;;;;;23.35;43.51;102141.00;5054419;28;20024;-75
2022/05/02 11:56:59;;;;;;;13.95;8.95;;;;;;;23.42;43.09;102138.34;5056129;28;20017;-75
2022/05/02 11:59:33;;;;;;;12.27;8.02;;;;;;;23.53;43.21;102133.81;5056122;28;20032;-75
2022/05/02 12:02:03;;;;;;;18.02;9.20;;;;;;;23.59;42.69;102130.72;5056426;28;20458;-75
2022/05/02 12:04:32;;;;;;;12.80;7.85;;;;;;;23.69;42.60;102136.53;5056002;28;20029;-76